sensor_id;sensor_type;location;lat;lon;timestamp;temperature;humidity
26909;DHT22;14477;51.038;4.588;2023-06-26T00:02:17;27.00;54.80
26909;DHT22;14477;51.038;4.588;2023-06-26T00:04:43;26.90;54.80
26909;DHT22;14477;51.038;4.588;2023-06-26T00:07:09;26.90;54.90
26909;DHT22;14477;51.038;4.588;2023-06-26T00:09:35;26.80;54.80
26909;DHT22;14477;51.038;4.588;2023-06-26T00:12:01;26.80;54.80
26909;DHT22;14477;51.038;4.588;2023-06-26T00:14:27;26.70;54.70
26909;DHT22;14477;51.038;4.588;2023-06-26T00:16:53;26.70;54.80
26909;DHT22;14477;51.038;4.588;2023-06-26T00:19:19;26.60;54.80
26909;DHT22;14477;51.038;4.588;2023-06-26T00:21:44;26.60;55.00
26909;DHT22;14477;51.038;4.588;2023-06-26T00:24:14;26.50;55.10
26909;DHT22;14477;51.038;4.588;2023-06-26T00:26:40;26.50;55.20
26909;DHT22;14477;51.038;4.588;2023-06-26T00:29:06;26.40;55.10
26909;DHT22;14477;51.038;4.588;2023-06-26T00:31:31;26.40;55.20
26909;DHT22;14477;51.038;4.588;2023-06-26T00:33:57;26.30;55.40
26909;DHT22;14477;51.038;4.588;2023-06-26T00:36:23;26.20;55.30
26909;DHT22;14477;51.038;4.588;2023-06-26T00:38:51;26.10;55.40
26909;DHT22;14477;51.038;4.588;2023-06-26T00:41:18;26.10;55.70
26909;DHT22;14477;51.038;4.588;2023-06-26T00:43:44;26.00;55.50
26909;DHT22;14477;51.038;4.588;2023-06-26T00:46:12;25.90;55.60
26909;DHT22;14477;51.038;4.588;2023-06-26T00:48:39;25.90;55.70
26909;DHT22;14477;51.038;4.588;2023-06-26T00:51:07;25.80;55.70
26909;DHT22;14477;51.038;4.588;2023-06-26T00:53:33;25.80;55.80
26909;DHT22;14477;51.038;4.588;2023-06-26T00:56:00;25.70;55.80
26909;DHT22;14477;51.038;4.588;2023-06-26T00:58:26;25.70;55.90
26909;DHT22;14477;51.038;4.588;2023-06-26T01:00:52;25.60;56.50
26909;DHT22;14477;51.038;4.588;2023-06-26T01:03:22;25.60;56.00
26909;DHT22;14477;51.038;4.588;2023-06-26T01:05:48;25.50;55.90
26909;DHT22;14477;51.038;4.588;2023-06-26T01:08:16;25.50;55.90
26909;DHT22;14477;51.038;4.588;2023-06-26T01:10:42;25.40;55.90
26909;DHT22;14477;51.038;4.588;2023-06-26T01:13:08;25.40;55.90
26909;DHT22;14477;51.038;4.588;2023-06-26T01:15:34;25.30;55.80
26909;DHT22;14477;51.038;4.588;2023-06-26T01:18:00;25.30;55.80
26909;DHT22;14477;51.038;4.588;2023-06-26T01:20:36;25.20;55.80
26909;DHT22;14477;51.038;4.588;2023-06-26T01:23:14;25.10;56.00
26909;DHT22;14477;51.038;4.588;2023-06-26T01:26:20;25.10;56.00
26909;DHT22;14477;51.038;4.588;2023-06-26T01:28:47;25.10;56.40
26909;DHT22;14477;51.038;4.588;2023-06-26T01:31:15;25.00;55.80
26909;DHT22;14477;51.038;4.588;2023-06-26T01:33:41;25.00;55.90
26909;DHT22;14477;51.038;4.588;2023-06-26T01:36:07;25.00;56.10
26909;DHT22;14477;51.038;4.588;2023-06-26T01:38:33;24.90;56.80
26909;DHT22;14477;51.038;4.588;2023-06-26T01:41:00;24.90;56.30
26909;DHT22;14477;51.038;4.588;2023-06-26T01:46:11;24.80;56.50
26909;DHT22;14477;51.038;4.588;2023-06-26T01:49:05;24.70;56.80
26909;DHT22;14477;51.038;4.588;2023-06-26T01:51:44;24.70;57.10
26909;DHT22;14477;51.038;4.588;2023-06-26T01:54:15;24.70;57.40
26909;DHT22;14477;51.038;4.588;2023-06-26T01:56:43;24.60;57.10
26909;DHT22;14477;51.038;4.588;2023-06-26T01:59:12;24.50;57.10
26909;DHT22;14477;51.038;4.588;2023-06-26T02:01:39;24.50;57.20
26909;DHT22;14477;51.038;4.588;2023-06-26T02:04:05;24.50;57.20
26909;DHT22;14477;51.038;4.588;2023-06-26T02:06:31;24.40;57.30
26909;DHT22;14477;51.038;4.588;2023-06-26T02:08:57;24.40;57.50
26909;DHT22;14477;51.038;4.588;2023-06-26T02:11:23;24.30;57.60
26909;DHT22;14477;51.038;4.588;2023-06-26T02:13:49;24.30;57.70
26909;DHT22;14477;51.038;4.588;2023-06-26T02:16:15;24.30;57.80
26909;DHT22;14477;51.038;4.588;2023-06-26T02:18:40;24.30;57.90
26909;DHT22;14477;51.038;4.588;2023-06-26T02:21:07;24.30;58.00
26909;DHT22;14477;51.038;4.588;2023-06-26T02:23:33;24.20;58.10
26909;DHT22;14477;51.038;4.588;2023-06-26T02:25:59;24.20;58.10
26909;DHT22;14477;51.038;4.588;2023-06-26T02:28:25;24.20;58.30
26909;DHT22;14477;51.038;4.588;2023-06-26T02:30:51;24.10;58.30
26909;DHT22;14477;51.038;4.588;2023-06-26T02:33:16;24.10;58.50
26909;DHT22;14477;51.038;4.588;2023-06-26T02:35:42;24.00;58.50
26909;DHT22;14477;51.038;4.588;2023-06-26T02:38:08;24.00;58.60
26909;DHT22;14477;51.038;4.588;2023-06-26T02:40:33;23.90;58.80
26909;DHT22;14477;51.038;4.588;2023-06-26T02:42:59;23.90;58.90
26909;DHT22;14477;51.038;4.588;2023-06-26T02:45:25;23.80;59.10
26909;DHT22;14477;51.038;4.588;2023-06-26T02:47:50;23.70;59.30
26909;DHT22;14477;51.038;4.588;2023-06-26T02:50:16;23.70;59.40
26909;DHT22;14477;51.038;4.588;2023-06-26T02:52:42;23.70;59.80
26909;DHT22;14477;51.038;4.588;2023-06-26T02:55:07;23.60;59.80
26909;DHT22;14477;51.038;4.588;2023-06-26T02:57:33;23.60;59.90
26909;DHT22;14477;51.038;4.588;2023-06-26T02:59:59;23.70;60.10
26909;DHT22;14477;51.038;4.588;2023-06-26T03:02:24;23.60;60.40
26909;DHT22;14477;51.038;4.588;2023-06-26T03:04:50;23.60;60.40
26909;DHT22;14477;51.038;4.588;2023-06-26T03:07:18;23.60;60.50
26909;DHT22;14477;51.038;4.588;2023-06-26T03:09:43;23.50;60.50
26909;DHT22;14477;51.038;4.588;2023-06-26T03:12:09;23.60;60.70
26909;DHT22;14477;51.038;4.588;2023-06-26T03:14:35;23.50;60.70
26909;DHT22;14477;51.038;4.588;2023-06-26T03:17:00;23.50;60.90
26909;DHT22;14477;51.038;4.588;2023-06-26T03:19:29;23.40;60.90
26909;DHT22;14477;51.038;4.588;2023-06-26T03:21:55;23.40;61.00
26909;DHT22;14477;51.038;4.588;2023-06-26T03:24:20;23.40;61.20
26909;DHT22;14477;51.038;4.588;2023-06-26T03:26:46;23.30;61.20
26909;DHT22;14477;51.038;4.588;2023-06-26T03:29:12;23.20;61.30
26909;DHT22;14477;51.038;4.588;2023-06-26T03:31:38;23.20;61.50
26909;DHT22;14477;51.038;4.588;2023-06-26T03:34:03;23.10;61.70
26909;DHT22;14477;51.038;4.588;2023-06-26T03:36:29;23.10;61.80
26909;DHT22;14477;51.038;4.588;2023-06-26T03:38:55;23.10;62.20
26909;DHT22;14477;51.038;4.588;2023-06-26T03:41:23;23.00;62.00
26909;DHT22;14477;51.038;4.588;2023-06-26T03:43:49;22.90;62.30
26909;DHT22;14477;51.038;4.588;2023-06-26T03:46:15;22.90;62.50
26909;DHT22;14477;51.038;4.588;2023-06-26T03:48:40;22.90;62.70
26909;DHT22;14477;51.038;4.588;2023-06-26T03:51:07;22.80;62.70
26909;DHT22;14477;51.038;4.588;2023-06-26T03:53:33;22.70;62.80
26909;DHT22;14477;51.038;4.588;2023-06-26T03:55:59;22.70;63.00
26909;DHT22;14477;51.038;4.588;2023-06-26T03:58:25;22.70;63.20
26909;DHT22;14477;51.038;4.588;2023-06-26T04:00:51;22.60;63.20
26909;DHT22;14477;51.038;4.588;2023-06-26T04:03:17;22.60;63.30
26909;DHT22;14477;51.038;4.588;2023-06-26T04:05:42;22.60;63.60
26909;DHT22;14477;51.038;4.588;2023-06-26T04:08:08;22.50;63.70
26909;DHT22;14477;51.038;4.588;2023-06-26T04:10:34;22.60;63.70
26909;DHT22;14477;51.038;4.588;2023-06-26T04:13:01;22.50;63.70
26909;DHT22;14477;51.038;4.588;2023-06-26T04:15:28;22.50;64.00
26909;DHT22;14477;51.038;4.588;2023-06-26T04:17:53;22.50;64.00
26909;DHT22;14477;51.038;4.588;2023-06-26T04:20:19;22.50;64.20
26909;DHT22;14477;51.038;4.588;2023-06-26T04:22:45;22.40;64.00
26909;DHT22;14477;51.038;4.588;2023-06-26T04:25:10;22.40;64.50
26909;DHT22;14477;51.038;4.588;2023-06-26T04:27:39;22.40;64.50
26909;DHT22;14477;51.038;4.588;2023-06-26T04:30:05;22.40;64.70
26909;DHT22;14477;51.038;4.588;2023-06-26T04:32:31;22.30;64.80
26909;DHT22;14477;51.038;4.588;2023-06-26T04:34:57;22.30;64.90
26909;DHT22;14477;51.038;4.588;2023-06-26T04:37:23;22.30;64.90
26909;DHT22;14477;51.038;4.588;2023-06-26T04:39:50;22.20;64.90
26909;DHT22;14477;51.038;4.588;2023-06-26T04:42:15;22.20;65.20
26909;DHT22;14477;51.038;4.588;2023-06-26T04:44:41;22.20;65.20
26909;DHT22;14477;51.038;4.588;2023-06-26T04:47:08;22.20;65.30
26909;DHT22;14477;51.038;4.588;2023-06-26T04:49:34;22.20;65.70
26909;DHT22;14477;51.038;4.588;2023-06-26T04:52:00;22.20;65.70
26909;DHT22;14477;51.038;4.588;2023-06-26T04:54:26;22.20;65.90
26909;DHT22;14477;51.038;4.588;2023-06-26T04:56:53;22.20;65.90
26909;DHT22;14477;51.038;4.588;2023-06-26T04:59:18;22.20;65.70
26909;DHT22;14477;51.038;4.588;2023-06-26T05:01:44;22.20;65.90
26909;DHT22;14477;51.038;4.588;2023-06-26T05:04:14;22.20;65.70
26909;DHT22;14477;51.038;4.588;2023-06-26T05:06:40;22.20;65.70
26909;DHT22;14477;51.038;4.588;2023-06-26T05:09:06;22.20;65.80
26909;DHT22;14477;51.038;4.588;2023-06-26T05:11:32;22.20;65.70
26909;DHT22;14477;51.038;4.588;2023-06-26T05:13:58;22.20;65.90
26909;DHT22;14477;51.038;4.588;2023-06-26T05:16:23;22.10;65.90
26909;DHT22;14477;51.038;4.588;2023-06-26T05:18:49;22.10;65.80
26909;DHT22;14477;51.038;4.588;2023-06-26T05:21:16;22.10;65.90
26909;DHT22;14477;51.038;4.588;2023-06-26T05:23:42;22.00;66.10
26909;DHT22;14477;51.038;4.588;2023-06-26T05:26:10;22.10;66.10
26909;DHT22;14477;51.038;4.588;2023-06-26T05:28:37;22.00;66.10
26909;DHT22;14477;51.038;4.588;2023-06-26T05:31:03;22.00;66.20
26909;DHT22;14477;51.038;4.588;2023-06-26T05:33:31;22.00;66.20
26909;DHT22;14477;51.038;4.588;2023-06-26T05:36:00;22.00;66.30
26909;DHT22;14477;51.038;4.588;2023-06-26T05:38:27;22.00;66.40
26909;DHT22;14477;51.038;4.588;2023-06-26T05:40:53;22.00;66.50
26909;DHT22;14477;51.038;4.588;2023-06-26T05:43:19;22.00;66.60
26909;DHT22;14477;51.038;4.588;2023-06-26T05:45:47;22.00;66.70
26909;DHT22;14477;51.038;4.588;2023-06-26T05:48:13;21.90;66.60
26909;DHT22;14477;51.038;4.588;2023-06-26T05:50:39;21.90;67.50
26909;DHT22;14477;51.038;4.588;2023-06-26T05:53:07;21.90;66.90
26909;DHT22;14477;51.038;4.588;2023-06-26T05:55:33;22.00;66.80
26909;DHT22;14477;51.038;4.588;2023-06-26T05:58:00;21.90;66.80
26909;DHT22;14477;51.038;4.588;2023-06-26T06:00:27;22.00;66.90
26909;DHT22;14477;51.038;4.588;2023-06-26T06:02:53;22.00;67.00
26909;DHT22;14477;51.038;4.588;2023-06-26T06:05:22;22.10;66.80
26909;DHT22;14477;51.038;4.588;2023-06-26T06:07:49;22.00;66.80
26909;DHT22;14477;51.038;4.588;2023-06-26T06:10:15;22.10;66.80
26909;DHT22;14477;51.038;4.588;2023-06-26T06:12:41;22.10;66.80
26909;DHT22;14477;51.038;4.588;2023-06-26T06:15:07;22.10;66.60
26909;DHT22;14477;51.038;4.588;2023-06-26T06:17:33;22.20;66.70
26909;DHT22;14477;51.038;4.588;2023-06-26T06:19:58;22.20;66.70
26909;DHT22;14477;51.038;4.588;2023-06-26T06:22:24;22.20;66.70
26909;DHT22;14477;51.038;4.588;2023-06-26T06:24:50;22.30;66.70
26909;DHT22;14477;51.038;4.588;2023-06-26T06:27:16;22.30;66.80
26909;DHT22;14477;51.038;4.588;2023-06-26T06:29:42;22.40;66.80
26909;DHT22;14477;51.038;4.588;2023-06-26T06:32:07;22.40;66.50
26909;DHT22;14477;51.038;4.588;2023-06-26T06:34:33;22.50;66.50
26909;DHT22;14477;51.038;4.588;2023-06-26T06:36:59;22.50;66.30
26909;DHT22;14477;51.038;4.588;2023-06-26T06:39:25;22.50;66.20
26909;DHT22;14477;51.038;4.588;2023-06-26T06:41:51;22.60;66.20
26909;DHT22;14477;51.038;4.588;2023-06-26T06:44:17;22.60;66.40
26909;DHT22;14477;51.038;4.588;2023-06-26T06:46:43;22.70;66.40
26909;DHT22;14477;51.038;4.588;2023-06-26T06:49:09;22.70;66.30
26909;DHT22;14477;51.038;4.588;2023-06-26T06:51:34;22.80;66.30
26909;DHT22;14477;51.038;4.588;2023-06-26T06:54:01;22.80;66.10
26909;DHT22;14477;51.038;4.588;2023-06-26T06:56:26;22.90;66.10
26909;DHT22;14477;51.038;4.588;2023-06-26T06:58:52;22.90;65.90
26909;DHT22;14477;51.038;4.588;2023-06-26T07:01:18;23.00;65.80
26909;DHT22;14477;51.038;4.588;2023-06-26T07:03:44;23.00;65.80
26909;DHT22;14477;51.038;4.588;2023-06-26T07:06:09;23.00;65.80
26909;DHT22;14477;51.038;4.588;2023-06-26T07:08:35;23.00;65.80
26909;DHT22;14477;51.038;4.588;2023-06-26T07:11:01;23.10;65.90
26909;DHT22;14477;51.038;4.588;2023-06-26T07:13:27;23.20;65.80
26909;DHT22;14477;51.038;4.588;2023-06-26T07:15:52;23.20;65.50
26909;DHT22;14477;51.038;4.588;2023-06-26T07:18:18;23.20;65.50
26909;DHT22;14477;51.038;4.588;2023-06-26T07:20:44;23.30;65.50
26909;DHT22;14477;51.038;4.588;2023-06-26T07:23:09;23.30;65.40
26909;DHT22;14477;51.038;4.588;2023-06-26T07:25:36;23.40;65.40
26909;DHT22;14477;51.038;4.588;2023-06-26T07:28:01;23.40;65.50
26909;DHT22;14477;51.038;4.588;2023-06-26T07:30:28;23.50;65.50
26909;DHT22;14477;51.038;4.588;2023-06-26T07:32:54;23.60;65.30
26909;DHT22;14477;51.038;4.588;2023-06-26T07:35:19;23.70;65.20
26909;DHT22;14477;51.038;4.588;2023-06-26T07:37:45;23.70;65.10
26909;DHT22;14477;51.038;4.588;2023-06-26T07:40:12;23.80;64.90
26909;DHT22;14477;51.038;4.588;2023-06-26T07:42:38;23.90;64.90
26909;DHT22;14477;51.038;4.588;2023-06-26T07:45:05;24.00;64.80
26909;DHT22;14477;51.038;4.588;2023-06-26T07:47:39;24.00;64.60
26909;DHT22;14477;51.038;4.588;2023-06-26T07:50:05;24.20;64.50
26909;DHT22;14477;51.038;4.588;2023-06-26T07:52:31;24.20;64.40
26909;DHT22;14477;51.038;4.588;2023-06-26T07:54:57;24.30;64.50
26909;DHT22;14477;51.038;4.588;2023-06-26T07:57:22;24.40;64.50
26909;DHT22;14477;51.038;4.588;2023-06-26T07:59:49;24.60;64.30
26909;DHT22;14477;51.038;4.588;2023-06-26T08:02:15;24.70;64.10
26909;DHT22;14477;51.038;4.588;2023-06-26T08:04:41;24.80;63.90
26909;DHT22;14477;51.038;4.588;2023-06-26T08:07:07;24.90;63.60
26909;DHT22;14477;51.038;4.588;2023-06-26T08:09:32;25.10;63.70
26909;DHT22;14477;51.038;4.588;2023-06-26T08:11:59;25.20;64.20
26909;DHT22;14477;51.038;4.588;2023-06-26T08:14:25;25.40;64.90
26909;DHT22;14477;51.038;4.588;2023-06-26T08:16:51;25.70;65.00
26909;DHT22;14477;51.038;4.588;2023-06-26T08:19:17;26.00;64.40
26909;DHT22;14477;51.038;4.588;2023-06-26T08:21:45;26.20;64.00
26909;DHT22;14477;51.038;4.588;2023-06-26T08:24:11;26.60;64.10
26909;DHT22;14477;51.038;4.588;2023-06-26T08:26:38;26.80;63.20
26909;DHT22;14477;51.038;4.588;2023-06-26T08:29:04;27.00;61.80
26909;DHT22;14477;51.038;4.588;2023-06-26T08:31:34;27.10;60.70
26909;DHT22;14477;51.038;4.588;2023-06-26T08:34:03;27.10;60.10
26909;DHT22;14477;51.038;4.588;2023-06-26T08:36:29;27.20;60.30
26909;DHT22;14477;51.038;4.588;2023-06-26T08:38:55;27.30;61.00
26909;DHT22;14477;51.038;4.588;2023-06-26T08:41:21;27.50;61.70
26909;DHT22;14477;51.038;4.588;2023-06-26T08:43:47;27.80;61.60
26909;DHT22;14477;51.038;4.588;2023-06-26T08:46:14;28.00;61.60
26909;DHT22;14477;51.038;4.588;2023-06-26T08:48:43;28.40;61.20
26909;DHT22;14477;51.038;4.588;2023-06-26T08:51:13;28.80;61.30
26909;DHT22;14477;51.038;4.588;2023-06-26T08:54:00;29.20;61.00
26909;DHT22;14477;51.038;4.588;2023-06-26T08:56:42;29.60;60.00
26909;DHT22;14477;51.038;4.588;2023-06-26T08:59:10;30.00;57.00
26909;DHT22;14477;51.038;4.588;2023-06-26T09:01:38;30.20;58.90
26909;DHT22;14477;51.038;4.588;2023-06-26T09:04:04;30.50;58.00
26909;DHT22;14477;51.038;4.588;2023-06-26T09:06:31;30.60;57.00
26909;DHT22;14477;51.038;4.588;2023-06-26T09:08:57;30.70;55.60
26909;DHT22;14477;51.038;4.588;2023-06-26T09:11:22;30.70;55.10
26909;DHT22;14477;51.038;4.588;2023-06-26T09:13:48;30.80;54.60
26909;DHT22;14477;51.038;4.588;2023-06-26T09:16:14;30.80;54.40
26909;DHT22;14477;51.038;4.588;2023-06-26T09:18:44;30.80;53.70
26909;DHT22;14477;51.038;4.588;2023-06-26T09:21:11;30.80;53.40
26909;DHT22;14477;51.038;4.588;2023-06-26T09:23:39;30.90;53.70
26909;DHT22;14477;51.038;4.588;2023-06-26T09:26:05;31.00;53.30
26909;DHT22;14477;51.038;4.588;2023-06-26T09:28:35;31.10;53.30
26909;DHT22;14477;51.038;4.588;2023-06-26T09:31:06;31.30;52.00
26909;DHT22;14477;51.038;4.588;2023-06-26T09:33:37;31.40;52.50
26909;DHT22;14477;51.038;4.588;2023-06-26T09:36:07;31.60;52.60
26909;DHT22;14477;51.038;4.588;2023-06-26T09:38:35;31.90;51.20
26909;DHT22;14477;51.038;4.588;2023-06-26T09:41:05;32.00;51.40
26909;DHT22;14477;51.038;4.588;2023-06-26T09:43:31;32.10;50.80
26909;DHT22;14477;51.038;4.588;2023-06-26T09:45:57;32.20;49.70
26909;DHT22;14477;51.038;4.588;2023-06-26T09:48:24;32.10;49.20
26909;DHT22;14477;51.038;4.588;2023-06-26T09:50:49;32.10;49.10
26909;DHT22;14477;51.038;4.588;2023-06-26T09:53:15;32.00;49.00
26909;DHT22;14477;51.038;4.588;2023-06-26T09:55:43;32.00;48.90
26909;DHT22;14477;51.038;4.588;2023-06-26T09:58:11;32.00;49.00
26909;DHT22;14477;51.038;4.588;2023-06-26T10:00:43;32.10;48.40
26909;DHT22;14477;51.038;4.588;2023-06-26T10:03:10;32.20;47.70
26909;DHT22;14477;51.038;4.588;2023-06-26T10:05:41;32.40;48.00
26909;DHT22;14477;51.038;4.588;2023-06-26T10:08:07;32.50;48.30
26909;DHT22;14477;51.038;4.588;2023-06-26T10:10:35;32.80;48.40
26909;DHT22;14477;51.038;4.588;2023-06-26T10:13:11;33.00;47.90
26909;DHT22;14477;51.038;4.588;2023-06-26T10:15:40;33.20;46.60
26909;DHT22;14477;51.038;4.588;2023-06-26T10:18:07;33.40;46.00
26909;DHT22;14477;51.038;4.588;2023-06-26T10:20:33;33.40;45.80
26909;DHT22;14477;51.038;4.588;2023-06-26T10:23:00;33.40;45.90
26909;DHT22;14477;51.038;4.588;2023-06-26T10:25:29;33.50;46.20
26909;DHT22;14477;51.038;4.588;2023-06-26T10:27:59;33.60;45.70
26909;DHT22;14477;51.038;4.588;2023-06-26T10:30:33;33.60;44.70
26909;DHT22;14477;51.038;4.588;2023-06-26T10:33:00;33.50;43.70
26909;DHT22;14477;51.038;4.588;2023-06-26T10:35:27;33.50;44.10
26909;DHT22;14477;51.038;4.588;2023-06-26T10:38:00;33.30;43.60
26909;DHT22;14477;51.038;4.588;2023-06-26T10:40:28;33.20;43.10
26909;DHT22;14477;51.038;4.588;2023-06-26T10:43:09;33.20;44.90
26909;DHT22;14477;51.038;4.588;2023-06-26T10:45:36;33.30;43.60
26909;DHT22;14477;51.038;4.588;2023-06-26T10:48:02;33.30;43.40
26909;DHT22;14477;51.038;4.588;2023-06-26T10:50:31;33.10;42.70
26909;DHT22;14477;51.038;4.588;2023-06-26T10:56:04;32.90;41.40
26909;DHT22;14477;51.038;4.588;2023-06-26T11:01:26;32.60;40.90
26909;DHT22;14477;51.038;4.588;2023-06-26T11:04:06;32.60;41.20
26909;DHT22;14477;51.038;4.588;2023-06-26T11:06:32;32.80;42.20
26909;DHT22;14477;51.038;4.588;2023-06-26T11:14:24;33.20;41.10
26909;DHT22;14477;51.038;4.588;2023-06-26T11:16:50;33.30;42.50
26909;DHT22;14477;51.038;4.588;2023-06-26T11:19:18;33.50;42.90
26909;DHT22;14477;51.038;4.588;2023-06-26T11:21:44;33.70;43.70
26909;DHT22;14477;51.038;4.588;2023-06-26T11:24:11;33.80;42.10
26909;DHT22;14477;51.038;4.588;2023-06-26T11:26:40;34.00;41.60
26909;DHT22;14477;51.038;4.588;2023-06-26T11:29:07;34.00;40.40
26909;DHT22;14477;51.038;4.588;2023-06-26T11:31:35;33.90;40.10
26909;DHT22;14477;51.038;4.588;2023-06-26T11:34:09;33.70;39.50
26909;DHT22;14477;51.038;4.588;2023-06-26T11:36:38;33.40;38.40
26909;DHT22;14477;51.038;4.588;2023-06-26T11:39:07;33.10;39.20
26909;DHT22;14477;51.038;4.588;2023-06-26T11:41:39;33.00;39.40
26909;DHT22;14477;51.038;4.588;2023-06-26T11:44:06;32.80;40.20
26909;DHT22;14477;51.038;4.588;2023-06-26T11:46:34;32.80;40.70
26909;DHT22;14477;51.038;4.588;2023-06-26T11:49:02;33.00;41.30
26909;DHT22;14477;51.038;4.588;2023-06-26T11:51:28;33.20;41.70
26909;DHT22;14477;51.038;4.588;2023-06-26T11:53:54;33.40;41.60
26909;DHT22;14477;51.038;4.588;2023-06-26T11:56:20;33.70;41.50
26909;DHT22;14477;51.038;4.588;2023-06-26T11:59:04;34.00;41.60
26909;DHT22;14477;51.038;4.588;2023-06-26T12:01:35;34.30;39.90
26909;DHT22;14477;51.038;4.588;2023-06-26T12:04:03;34.60;40.30
26909;DHT22;14477;51.038;4.588;2023-06-26T12:06:31;34.70;39.70
26909;DHT22;14477;51.038;4.588;2023-06-26T12:09:00;34.80;39.30
26909;DHT22;14477;51.038;4.588;2023-06-26T12:11:27;34.90;39.10
26909;DHT22;14477;51.038;4.588;2023-06-26T12:13:54;35.00;38.80
26909;DHT22;14477;51.038;4.588;2023-06-26T12:16:20;35.10;38.50
26909;DHT22;14477;51.038;4.588;2023-06-26T12:18:46;35.10;38.40
26909;DHT22;14477;51.038;4.588;2023-06-26T12:24:00;35.20;36.80
26909;DHT22;14477;51.038;4.588;2023-06-26T12:26:27;35.30;37.00
26909;DHT22;14477;51.038;4.588;2023-06-26T12:29:05;35.30;37.70
26909;DHT22;14477;51.038;4.588;2023-06-26T12:31:32;35.30;36.70
26909;DHT22;14477;51.038;4.588;2023-06-26T12:33:58;35.20;36.90
26909;DHT22;14477;51.038;4.588;2023-06-26T12:36:24;35.10;36.40
26909;DHT22;14477;51.038;4.588;2023-06-26T12:38:52;34.90;36.60
26909;DHT22;14477;51.038;4.588;2023-06-26T12:41:17;34.90;36.50
26909;DHT22;14477;51.038;4.588;2023-06-26T12:43:46;34.70;36.60
26909;DHT22;14477;51.038;4.588;2023-06-26T12:46:11;34.70;36.20
26909;DHT22;14477;51.038;4.588;2023-06-26T12:48:44;34.60;36.30
26909;DHT22;14477;51.038;4.588;2023-06-26T12:51:12;34.50;36.80
26909;DHT22;14477;51.038;4.588;2023-06-26T12:53:39;34.40;36.70
26909;DHT22;14477;51.038;4.588;2023-06-26T12:56:08;34.40;36.20
26909;DHT22;14477;51.038;4.588;2023-06-26T12:58:35;34.20;36.50
26909;DHT22;14477;51.038;4.588;2023-06-26T13:01:06;34.20;36.50
26909;DHT22;14477;51.038;4.588;2023-06-26T13:03:40;34.20;36.50
26909;DHT22;14477;51.038;4.588;2023-06-26T13:06:06;34.20;36.30
26909;DHT22;14477;51.038;4.588;2023-06-26T13:08:33;34.00;35.40
26909;DHT22;14477;51.038;4.588;2023-06-26T13:10:59;33.90;35.30
26909;DHT22;14477;51.038;4.588;2023-06-26T13:13:25;33.70;35.50
26909;DHT22;14477;51.038;4.588;2023-06-26T13:15:51;33.60;35.40
26909;DHT22;14477;51.038;4.588;2023-06-26T13:18:16;33.40;35.50
26909;DHT22;14477;51.038;4.588;2023-06-26T13:20:42;33.30;35.60
26909;DHT22;14477;51.038;4.588;2023-06-26T13:23:08;33.20;35.90
26909;DHT22;14477;51.038;4.588;2023-06-26T13:25:33;33.10;36.20
26909;DHT22;14477;51.038;4.588;2023-06-26T13:27:59;33.10;36.30
26909;DHT22;14477;51.038;4.588;2023-06-26T13:30:25;33.20;36.60
26909;DHT22;14477;51.038;4.588;2023-06-26T13:32:51;33.30;37.00
26909;DHT22;14477;51.038;4.588;2023-06-26T13:35:16;33.40;37.60
26909;DHT22;14477;51.038;4.588;2023-06-26T13:37:42;33.50;36.20
26909;DHT22;14477;51.038;4.588;2023-06-26T13:40:08;33.60;36.00
26909;DHT22;14477;51.038;4.588;2023-06-26T13:42:35;33.60;35.90
26909;DHT22;14477;51.038;4.588;2023-06-26T13:45:02;33.60;35.60
26909;DHT22;14477;51.038;4.588;2023-06-26T13:47:28;33.50;35.50
26909;DHT22;14477;51.038;4.588;2023-06-26T13:49:54;33.40;35.40
26909;DHT22;14477;51.038;4.588;2023-06-26T13:52:20;33.40;35.60
26909;DHT22;14477;51.038;4.588;2023-06-26T13:54:46;33.40;35.80
26909;DHT22;14477;51.038;4.588;2023-06-26T13:57:11;33.40;35.90
26909;DHT22;14477;51.038;4.588;2023-06-26T13:59:38;33.50;36.10
26909;DHT22;14477;51.038;4.588;2023-06-26T14:02:08;33.50;35.70
26909;DHT22;14477;51.038;4.588;2023-06-26T14:04:33;33.50;35.80
26909;DHT22;14477;51.038;4.588;2023-06-26T14:06:59;33.50;36.00
26909;DHT22;14477;51.038;4.588;2023-06-26T14:09:25;33.50;35.60
26909;DHT22;14477;51.038;4.588;2023-06-26T14:11:51;33.40;34.90
26909;DHT22;14477;51.038;4.588;2023-06-26T14:14:17;33.20;34.60
26909;DHT22;14477;51.038;4.588;2023-06-26T14:16:42;33.00;34.30
26909;DHT22;14477;51.038;4.588;2023-06-26T14:19:08;32.70;34.40
26909;DHT22;14477;51.038;4.588;2023-06-26T14:21:40;32.50;34.70
26909;DHT22;14477;51.038;4.588;2023-06-26T14:24:06;32.30;35.30
26909;DHT22;14477;51.038;4.588;2023-06-26T14:26:31;32.10;35.50
26909;DHT22;14477;51.038;4.588;2023-06-26T14:28:59;32.10;35.70
26909;DHT22;14477;51.038;4.588;2023-06-26T14:31:25;32.00;35.50
26909;DHT22;14477;51.038;4.588;2023-06-26T14:33:51;31.90;35.70
26909;DHT22;14477;51.038;4.588;2023-06-26T14:36:17;31.90;35.70
26909;DHT22;14477;51.038;4.588;2023-06-26T14:38:42;31.80;36.20
26909;DHT22;14477;51.038;4.588;2023-06-26T14:41:08;31.80;36.20
26909;DHT22;14477;51.038;4.588;2023-06-26T14:43:34;31.70;36.20
26909;DHT22;14477;51.038;4.588;2023-06-26T14:45:59;31.80;36.50
26909;DHT22;14477;51.038;4.588;2023-06-26T14:48:25;31.70;36.60
26909;DHT22;14477;51.038;4.588;2023-06-26T14:50:51;31.70;36.90
26909;DHT22;14477;51.038;4.588;2023-06-26T14:53:17;31.70;37.00
26909;DHT22;14477;51.038;4.588;2023-06-26T14:55:43;31.60;37.10
26909;DHT22;14477;51.038;4.588;2023-06-26T14:58:08;31.50;37.10
26909;DHT22;14477;51.038;4.588;2023-06-26T15:00:34;31.40;37.20
26909;DHT22;14477;51.038;4.588;2023-06-26T15:03:00;31.30;37.40
26909;DHT22;14477;51.038;4.588;2023-06-26T15:05:26;31.20;37.80
26909;DHT22;14477;51.038;4.588;2023-06-26T15:07:51;31.20;38.00
26909;DHT22;14477;51.038;4.588;2023-06-26T15:10:17;31.30;38.10
26909;DHT22;14477;51.038;4.588;2023-06-26T15:12:43;31.20;38.00
26909;DHT22;14477;51.038;4.588;2023-06-26T15:15:09;31.10;37.90
26909;DHT22;14477;51.038;4.588;2023-06-26T15:17:35;31.10;38.10
26909;DHT22;14477;51.038;4.588;2023-06-26T15:20:01;31.00;38.00
26909;DHT22;14477;51.038;4.588;2023-06-26T15:22:27;30.90;38.20
26909;DHT22;14477;51.038;4.588;2023-06-26T15:24:53;30.80;38.40
26909;DHT22;14477;51.038;4.588;2023-06-26T15:27:19;30.70;38.50
26909;DHT22;14477;51.038;4.588;2023-06-26T15:29:45;30.60;38.50
26909;DHT22;14477;51.038;4.588;2023-06-26T15:32:11;30.50;38.60
26909;DHT22;14477;51.038;4.588;2023-06-26T15:34:37;30.40;38.90
26909;DHT22;14477;51.038;4.588;2023-06-26T15:37:02;30.30;39.20
26909;DHT22;14477;51.038;4.588;2023-06-26T15:39:28;30.30;39.20
26909;DHT22;14477;51.038;4.588;2023-06-26T15:41:54;30.30;39.50
26909;DHT22;14477;51.038;4.588;2023-06-26T15:44:20;30.30;39.50
26909;DHT22;14477;51.038;4.588;2023-06-26T15:46:45;30.20;39.40